Uncategorized

2022 Ratings: Portage Early Bird

So early that they began the races before I finished the previews. I didn’t peek though…

Boys Adjustment: -17
Girls Adjustment: -33

A bit of a difference. For one, girls will usually be a bit higher of an adjustment, largely because they’re on the course for a longer period of time, usually 3+ minutes, or 15-20% longer. Boots on the ground over in Portage were telling me that it got a bit more humid/hot as the morning advanced.

EARLY RISERS

Last season, I used this section to call out athletes and teams that had big days, have been improving, or just have been on my radar for awhile. This could be the girl who’s dropped 3:00 from last year and is now running in the 22’s, this could be the winner. I will tend to pick those near the front, but coaches, parents, teammates – let me know if someone’s deserving of praise. We’re all equally important.

Davis Head, Davis Christy, and Jonah Workman, East Grand Rapids: East Grand Rapids, in their aspirations for a state title, will rely on depth in the 4th through 7th spots. These three packed up as their 4th-6th guys, Jonah clinching an early title for the Pioneer crew. Brinker, Thole, and Robinson up front are as good as any, these three might separate EGR from the rest of the field.

Madelyn Vande Bunte, Jenison: Has always been a solid runner for Jenison, sub-21 each of the past two years. Last winter and into this spring is where she bloomed. First, running many relays for the West Michigan Harriers, then speeding to massive PB’s in the shorter distance events (2:27/5:26). The progression continued here, where she began her season over 1:15 faster than in 2021.

GradeNameTimeTeamRating
12Colin Graham16:12.0Rockford201.7
12Ben Hunter16:14.1Portage Central201.0
11Ryan Brinker16:14.3East Grand Rapids200.9
11Aiden Moore16:15.6Battle Creek Lakeview200.5
11Alex Thole16:25.0East Grand Rapids197.3
12Joshua Gormley16:30.2Portage Central195.6
11Jasper Cane16:34.0Kalamazoo Central194.3
12William Winter16:35.7Parchment193.8
11Logan Begeman16:40.4Portage Central192.2
12Elijah Robinson16:53.6East Grand Rapids187.8
12Austin Williford16:56.2Paw Paw186.9
10Joseph Spada16:58.4Kalamazoo Central186.2
12Gavin Voetberg16:59.6Portage Central185.8
12Caleb Bost17:01.0Battle Creek Lakeview185.3
12Connor Wooley17:01.2Holland West Ottawa185.3
11Nate Fahey17:04.8Rockford184.1
12Davis Head17:07.0East Grand Rapids183.3
11Davis Christy17:08.6East Grand Rapids182.8
9Jonah Workman17:12.1East Grand Rapids181.6
11Michael Kloosterman17:16.0Kalamazoo Central180.3
12Ryan Kamp17:19.6GR_Northview179.1
11Hudson Kemperman17:20.8FHN GR_Forest Hills Northern178.7
11Nick Cabrera17:22.5Portage Central178.2
11Riley Shults17:24.9Hastings177.4
12Will Vanderbor17:25.2Paw Paw177.3
9Marcel Stork17:27.7Mattawan176.4
10Noah Schuette17:28.3Rockford176.2
9Owen Gifford17:31.5Portage Central175.2
11Connor Griffith17:36.5Marshall173.5
9Caleb TeBrake17:36.8GR_Northview173.4
11Carter Kegle17:39.3East Grand Rapids172.6
12Charles Lewis17:39.4Rockford172.5
9Jackson Lam17:40.8Kalamazoo Loy Norrix172.1
10Spencer Porter17:41.7FHN GR_Forest Hills Northern171.8
12Andre Soisson17:42.5Kalamazoo Central171.5
11Bryce Lloyd17:42.9Kalamazoo Homeschool Sports171.4
11Aidan McPartlin17:43.5Marshall171.2
12Ryan McMahon17:45.3East Grand Rapids170.6
10Jonah Bills17:45.8Battle Creek Lakeview170.4
12Oskar Wiedenhoeft17:47.2Kalamazoo Loy Norrix169.9
12Benjamin Bromley17:49.4Lowell169.2
10Matthew Long17:50.1Portage Central169.0
11Will Brodie17:50.4Kalamazoo Homeschool Sports168.9
12Levi Mills17:52.7Lowell168.1
10Brandon Simmons17:52.9Hastings168.0
9Andrew Wright17:53.8Kalamazoo Central167.7
9Ty Billings17:54.2Kalamazoo Central167.6
10Sulley Zietlow17:55.7Three Rivers167.1
11Pranit Koppolu17:59.7FHN GR_Forest Hills Northern165.8
12Sam Majoor18:02.2Rockford164.9
10Cannon Crowe18:03.2Portage Central164.6
11Gavin Betten18:04.2Rockford164.3
10Michael Lounsbury18:10.0Paw Paw162.3
Riley Weed18:12.8Holland Calvary Christian161.4
12Zach Piercy18:14.4Battle Creek Lakeview160.9
9Jack Edison18:14.6East Grand Rapids160.8
10George Janson18:15.5East Grand Rapids160.5
11Aden Webber18:22.2Paw Paw158.3
11Josh Hennessy18:22.8Battle Creek Lakeview158.1
12Austin Lee18:24.4Battle Creek Lakeview157.5
11Max Vangrouw18:24.9Holland West Ottawa157.4
11Braylon Iakiri18:28.3Lowell156.2
9Logan Westgate18:29.2Portage Central155.9
11Abrar Hossen18:30.3Portage Central155.6
9Dylan Duguay18:31.0Kalamazoo Loy Norrix155.3
12Mathieu Northuis18:34.0Portage Central154.3
11Josh Berryman18:34.6Portage Central154.1
12Dannion Simmet18:35.5Lowell153.8
12Zachary Gowan18:39.9Three Rivers152.4
9Parker Miller18:43.6Battle Creek Lakeview151.1
9Bray Mentzer18:44.0Battle Creek Lakeview151.0
12Leo Port18:44.0Mattawan151.0
11Reuben Solmes18:49.8Hastings149.1
12Peter Lewis18:49.9Portage Central149.0
9Vince Garritano18:51.4Kalamazoo Homeschool Sports148.5
10David Artman18:51.8Kalamazoo Homeschool Sports148.4
11Maxwell Krausman18:53.3Rockford147.9
12Rhys Sandman18:54.3Lowell147.6
11Ben Vitkauskas18:54.8Rockford147.4
12Johnathan Pant18:55.3Three Rivers147.2
10Elliot Cole18:56.5Parchment146.8
12Tyler Nethercot18:57.0FHN GR_Forest Hills Northern146.7
9Mason Saylor18:57.2Lowell146.6
9Clark Erwin18:59.0Marshall146.0
11Jonah Teed19:03.2Hastings144.6
11George Jackson19:05.7Kalamazoo Homeschool Sports143.8
11Isaac Perez19:07.0Three Rivers143.3
10Parker Schramski19:07.2FHN GR_Forest Hills Northern143.3
10Levi Jongekryg19:08.8Holland West Ottawa142.7
12Jared Leitch19:10.4Rockford142.2
12Jacob Mertes19:10.7Rockford142.1
10Ethan Gerlach19:15.5Holland West Ottawa140.5
9Camren DeVries19:17.3Holland West Ottawa139.9
9Elijah Thompson19:18.7Kalamazoo Central139.4
11Micah Morehouse19:20.2Marshall138.9
12Calvin Ruffini19:21.5FHN GR_Forest Hills Northern138.5
10Carter Hausman19:22.1Kalamazoo Loy Norrix138.3
11Danny Ewing19:27.8Kalamazoo Loy Norrix136.4
9Spencer Babcock19:27.9Paw Paw136.4
11Luke Duncan19:28.5Mattawan136.2
Noah Schipper19:36.6Holland Calvary Christian133.5
11Mitchell Mooney19:36.9Paw Paw133.4
Christian Getz19:38.1Holland Calvary Christian133.0
11Eddy Charron19:39.1Paw Paw132.6
11Billy Webster19:41.3Paw Paw131.9
11Drew Edwards19:41.4Kalamazoo Homeschool Sports131.9
10Bryce Billings19:42.1Kalamazoo Central131.6
9Cooper Byrne19:42.5Lowell131.5
12Elliott Clayton19:43.0Rockford131.3
12Gavin Hancox19:45.8Gobles130.4
11Vincent Dexter19:49.5Mattawan129.2
11Bruno Cabrera19:51.3Portage Central128.6
12Tony Rao19:52.2East Grand Rapids128.3
11Isaiah Olivarez19:53.7FHN GR_Forest Hills Northern127.8
9Jake Follett19:53.9Holland West Ottawa127.7
Caleb Adkins19:54.1Holland Calvary Christian127.6
9Porter Yurk19:54.2Holland West Ottawa127.6
9Clay Adair19:55.2Kalamazoo Homeschool Sports127.3
11Cash Newton19:56.5Kalamazoo Loy Norrix126.8
12Austin Miller19:59.2Rockford125.9
10Alex Rogers20:00.5Battle Creek Lakeview125.5
12Corbin Devilbiss20:01.1East Grand Rapids125.3
10Gabe Hillary20:02.2FHN GR_Forest Hills Northern124.9
11Caleb LaBoe20:02.3Hastings124.9
9Hayden Lafferty20:02.6Rockford124.8
9Adam Franck20:03.2Kalamazoo Homeschool Sports124.6
9Philip Chamberlain20:03.7FHN GR_Forest Hills Northern124.4
11Jackson Stewart20:04.2Mattawan124.3
10Keagan Cole20:06.0Parchment123.7
11Jacob Morrell20:06.7Lowell123.4
10Levi Vestrand20:07.4Paw Paw123.2
12Bryce Garcia20:07.5Rockford123.2
9Sam Zhang20:07.8Portage Central123.1
12Jacob Atteberry20:08.2Mattawan122.9
11Josh Lyon20:09.4Battle Creek Lakeview122.5
10Sam Bodine20:10.1Portage Central122.3
12Lucas VandeGrift20:18.9FHN GR_Forest Hills Northern119.4
9Reece Howes20:22.0Three Rivers118.3
9Owen Fisher20:24.7Mattawan117.4
11Kaidyn Boehm20:28.0Stevensville Lakeshore116.3
9Rhys Holmes20:28.5GR_Northview116.2
10Nicholas Pollich20:32.7Mattawan114.8
11Jacob Hallenbeck20:33.8Rockford114.4
12William VanderLaan20:34.0East Grand Rapids114.3
12Charlie Grimm20:34.1Rockford114.3
9Kian Sprik20:40.5FHN GR_Forest Hills Northern112.2
9Brayden Hekman20:42.1Lowell111.6
12Conner Larson20:43.2Portage Central111.3
12Joey McClelland20:43.8FHN GR_Forest Hills Northern111.1
11Mason Laurin20:46.3Stevensville Lakeshore110.2
11Adrian Gariepy20:46.8Mattawan110.1
10Emerson Townsend20:48.7Paw Paw109.4
9Seth Cross20:53.2Lowell107.9
11Jackson Lillrose20:54.1Marshall107.6
10Paul Fowler20:54.3Lowell107.6
11Robert Munden20:55.3Marshall107.2
11James Neeb20:57.3Portage Central106.6
10Alexander Moon20:58.1Portage Central106.3
9Aiden Jackson21:00.6Three Rivers105.5
12Alexander Steward21:02.1Hastings105.0
12Allen Trejo21:03.6Kalamazoo Central104.5
10Elliot Buchan21:04.6GR_Northview104.1
12Kees Duncan21:05.1East Grand Rapids104.0
9Gabriel Gauss21:05.6Rockford103.8
10Jacob Standfest21:07.9Rockford103.0
11Trey Bringedahl21:08.1Rockford103.0
9Aiden VanKuiken21:08.6East Grand Rapids102.8
11Drew Hoskins21:09.6Stevensville Lakeshore102.5
9Justin Bergman21:12.2Portage Central101.6
9Benaiah Roby21:12.5Kalamazoo Homeschool Sports101.5
10Zach Vonk21:14.9Holland Calvary Christian100.7
11Caleb Keaton21:17.0Battle Creek Lakeview100
12Valentino DiCroce21:18.9Portage Central99.4
9Nolan Williamson21:19.6East Grand Rapids99.1
9Henry Dutcher21:19.9Kalamazoo Central99.0
Eli Laninga21:21.9Holland Calvary Christian98.4
11Jacob Williams21:23.0Portage Central98.0
9Reece Lloyd21:24.3Kalamazoo Homeschool Sports97.6
10Cameron Davenport21:25.0Holland West Ottawa97.3
10John Hawver21:25.2Kalamazoo Loy Norrix97.3
11Jackson Kay21:25.3GR_Northview97.2
11Noah Bosma21:25.4Holland West Ottawa97.2
10Caleb Hirwa21:26.8Kalamazoo Central96.7
12George Murphy21:27.3East Grand Rapids96.6
9Colton Dibble21:27.6FHN GR_Forest Hills Northern96.5
9Brodie Daam21:27.9Paw Paw96.4
9Samuel Mathiesen21:30.2Portage Central95.6
12Tjorven Snook21:30.4Holland West Ottawa95.5
12Dean Kauffman21:30.6Rockford95.5
10Emilio Bultman21:31.0Rockford95.3
10Shota Sullins21:31.5Kalamazoo Homeschool Sports95.2
9Sam Hillary21:32.7East Grand Rapids94.8
9Cameron Weers21:35.2Marshall93.9
12Brendon Tribu21:43.4Kalamazoo Loy Norrix91.2
9Michael Dummer21:46.8Holland West Ottawa90.1
9Willem Spoelhof21:48.2FHN GR_Forest Hills Northern89.6
11Eoghan Burns21:50.7East Grand Rapids88.8
10Wyatt Remar21:52.6Lowell88.1
11Jacob Howes21:53.7Three Rivers87.8
11Kaeden Lies21:57.9Stevensville Lakeshore86.4
11Gabriel Flanders21:58.1Paw Paw86.3
9Beau Holmes21:58.5GR_Northview86.2
11Lasse Hagenow21:59.6FHN GR_Forest Hills Northern85.8
12Caleb Fish22:00.3FHN GR_Forest Hills Northern85.6
9Ross Bettich22:03.7Stevensville Lakeshore84.4
Owen Ledebuhr22:05.9Holland Calvary Christian83.7
12Adrian Trinh-Huynh22:07.3Battle Creek Lakeview83.2
12Enio Tzay22:07.7East Grand Rapids83.1
9Chase Weers22:11.8Marshall81.7
11Zach Boehr22:14.1Lowell81.0
9Jonah Zietlow22:15.0Three Rivers80.7
12Antonio Espinosa22:18.2Rockford79.6
12Avner Ravid22:21.4FHN GR_Forest Hills Northern78.5
11Jakob Sorensen22:21.5FHN GR_Forest Hills Northern78.5
11Cooper Hartzell22:22.2Kalamazoo Homeschool Sports78.3
11Alexander Bunker22:23.1FHN GR_Forest Hills Northern78.0
10Matthew Mooney22:24.6Paw Paw77.5
9Eliot Pavlik22:25.9Kalamazoo Loy Norrix77.0
10Luke Charboneau22:26.0Lowell77.0
10Nolan Kiplinger22:27.7Kalamazoo Loy Norrix76.4
11Isaac Greene22:29.5Battle Creek Lakeview75.8
10Zane Vorva22:30.8Parchment75.4
9Micah Shank22:31.0Parchment75.3
10Joel Hoppe22:31.2Holland West Ottawa75.3
11Cole Greenfield22:33.6Hastings74.5
12Evan Jaklitsch22:44.1FHN GR_Forest Hills Northern71.0
9Edward Wuerthele22:46.2FHN GR_Forest Hills Northern70.3
10Gabriel Streeter22:47.8Parchment69.7
11Bailey Pennock22:49.9Hastings69.0
9David Sager22:53.5Gobles67.8
10Zachary McPherson22:57.3Parchment66.6
11Alex West22:59.4Paw Paw65.9
11Robby Yoder22:59.7Three Rivers65.8
10Alex Burgess23:01.6Paw Paw65.1
9Isaac Rubin23:03.5Kalamazoo Loy Norrix64.5
12Liam Peterson23:03.5Rockford64.5
9Tyler VanKuiken23:06.6East Grand Rapids63.5
10Christopher Tilley23:06.6Marshall63.5
9Andrew Cary23:07.0Holland Calvary Christian63.3
9Riley Thomas23:07.2Portage Central63.3
9Ben VanLoo23:08.9Mattawan62.7
Oliver Vonk23:09.6Holland Calvary Christian62.5
9Jack Kubas23:10.2Portage Central62.3
11Ethan Wait23:10.8Gobles62.1
10Trey Sukola23:12.0Parchment61.7
10Logan Halstedt23:12.2Battle Creek Lakeview61.6
9Troyer Serna23:12.2Three Rivers61.6
10Xander Helenius23:13.5GR_Northview61.2
10Jerry Strasser23:16.5Paw Paw60.2
11Joe Korcek23:18.1Lowell59.6
9Blaine Reedy23:22.7Mattawan58.1
9Peyton Elder23:23.9Battle Creek Lakeview57.7
9Tobin Moo23:24.0East Grand Rapids57.7
9Frank Wunderlich23:25.4Paw Paw57.2
10Liam Adkins23:29.6Stevensville Lakeshore55.8
9Elliot Burnash23:30.6Portage Central55.5
9Joey Neuman23:33.3Mattawan54.6
9Haydn Perkins23:35.5Paw Paw53.8
10Ricky George23:37.0Mattawan53.3
9Austin Hunter23:44.0Mattawan51.0
11Mason Allen23:47.9Battle Creek Lakeview49.7
10Kaydyn Hann23:48.1Battle Creek Lakeview49.6
12Landon Battle23:51.7Lowell48.4
9Trey Hall23:56.9Three Rivers46.7
10Drew Kobryn23:59.1Three Rivers46.0
12Clay Wasielewski23:59.7Portage Central45.8
9Nikola Gjorgjievski24:01.4East Grand Rapids45.2
9Soren Stormo24:03.0FHN GR_Forest Hills Northern44.7
11James Bottema24:06.5Parchment43.5
9Anthony Bunker24:23.7FHN GR_Forest Hills Northern37.8
11Cameron Handwerker24:26.3Rockford36.9
11Liam Price24:26.9GR_Northview36.7
10Rex Blakley24:27.4East Grand Rapids36.5
9Aidan McGann24:29.2Lowell35.9
10Luke Koerner24:31.2Paw Paw35.3
9Piotrzowski Jacob24:33.9Holland West Ottawa34.4
9Luke Moore24:38.8Kalamazoo Homeschool Sports32.7
9Sam Noora24:41.5Kalamazoo Homeschool Sports31.8
9William Hillary24:42.5FHN GR_Forest Hills Northern31.5
10Joshua Kendall24:47.4FHN GR_Forest Hills Northern29.9
9Alex Reyes24:47.7Battle Creek Lakeview29.8
10Luka Lagina24:48.0Parchment29.7
10Izaak Mallo24:50.0Three Rivers29.0
9Dontrel Taylor24:53.6Three Rivers27.8
11Carter Damon25:00.5Marshall25.5
11Anders Melby25:12.7Lowell21.4
9Cole Cannon25:13.2Gobles21.3
11Nathan Garrity25:27.9Stevensville Lakeshore16.4
9Charlie Vitkauskas25:28.9Rockford16.0
11Omri Cohen25:30.1FHN GR_Forest Hills Northern15.6
10Ryan Friedmann25:31.0Portage Central15.3
10Benjamin Ault25:42.8Rockford11.4
9Andrew Nosis25:52.1Battle Creek Lakeview8.3
9Leonel Muss25:58.2FHN GR_Forest Hills Northern6.3
9Henry Greene26:02.1Battle Creek Lakeview5.0
10Jeremiah Cole26:06.0GR_Northview3.7
9Connor Miley26:13.6Parchment1.1

GradeNameTimeTeamRating
12Maya Guikema18:31.4Jenison160.5
12Annika Sandman18:44.8Lowell156.1
12Allison Cornell18:53.7FHN GR_Forest Hills Northern153.1
11Drew Muller19:10.7East Grand Rapids147.4
10Sadey Seyferth19:29.7East Grand Rapids141.1
9Gracie Lynn19:30.3East Grand Rapids140.9
9Reese Lynn19:30.7East Grand Rapids140.8
12Maggie Otto19:53.1Jenison133.3
12Ana Dunfee20:07.3Kalamazoo Loy Norrix128.6
11Madelyn Vande Bunte20:17.7Jenison125.1
10Annalise Alkema20:25.9Kalamazoo Central122.4
11Sophia Lado20:29.7East Grand Rapids121.1
11Amanda Williams20:32.8Portage Central120.1
12Camryn Bodine20:43.0East Grand Rapids116.7
11Addison Begeman20:53.0Portage Central113.3
12Mary England20:58.0Kalamazoo Central111.7
12Anna Rachowicz20:58.9Portage Central111.4
10Lauren Tooley21:13.6Portage Central106.5
9Trinity VanderWoude21:16.2Rockford105.6
11Reiel Ghiglia21:16.3Hudsonville105.6
11Angel Miller21:17.1Parchment105.3
10Preslee Perkins21:18.4Stevensville Lakeshore104.9
10Abbey Scholma21:21.3Hudsonville103.9
10Rachel Grice21:23.2Kalamazoo Central103.3
12Reesha Link21:24.0Kalamazoo Loy Norrix103.0
12Keira Sandman21:24.4Lowell102.9
12Julia Kozal21:25.8FHN GR_Forest Hills Northern102.4
10Sofia Bogard21:26.0Kalamazoo Loy Norrix102.3
11Cassidy Sanders21:29.6GR_Northview101.1
9Rhea Mouw21:30.2Portage Central100.9
9Lila Mae Frank21:34.1Battle Creek Lakeview99.6
9Macy Guikema21:36.0Jenison99.0
10Natalie Lewis21:38.5Rockford98.2
12Katrina Sandman21:39.9Lowell97.7
11Izzy Fazio21:41.1FHN GR_Forest Hills Northern97.3
10Olivia VerBeek21:43.5Jenison96.5
10Emma Smith21:48.5Rockford94.8
12Rita Gergely21:55.2Kalamazoo Homeschool Sports92.6
10Naomi Diekman21:56.0Jenison92.3
12Paige Ratliff21:58.0Battle Creek Lakeview91.7
12Norah Wright21:58.1GR_Northview91.6
9Andrea Schwartz22:01.3Jenison90.6
10Elizabeth Kunzi22:02.6Hudsonville90.1
11Amelia Isackson22:02.9Kalamazoo Loy Norrix90.0
10Marissa Bruininks22:10.0Portage Central87.7
11Jennifer Hernandez22:10.1Three Rivers87.6
12Haylee Woods22:14.6Stevensville Lakeshore86.1
10Kaylee Sprague22:17.5Stevensville Lakeshore85.2
9Madelyn Baar22:19.5East Grand Rapids84.5
11Kali Bunce22:22.1Mattawan83.6
12Nora Hoekert22:23.2Rockford83.3
12Alexia Ofield22:29.9FHN GR_Forest Hills Northern81.0
12Bethany Brown22:33.8Parchment79.7
9Taylor Hill22:35.7Kalamazoo Homeschool Sports79.1
10Tessa Minnear22:36.5Hudsonville78.8
10Claire O’Boyle22:37.7Lowell78.4
9Megan Breen22:37.7Portage Central78.4
12Reaghan Babrick22:39.1Kalamazoo Loy Norrix78.0
10Ava Vergara22:39.2Mattawan77.9
10Randi Pennington22:41.8Jenison77.1
10Quincy Stiffler22:43.0East Grand Rapids76.7
12Jessica Harney22:44.0Rockford76.3
9Evie Duer22:44.9Lowell76.0
11Kate Wayne22:46.5Hudsonville75.5
9Madison Cooley22:46.8Gobles75.4
11Avery Hecksel22:47.1East Grand Rapids75.3
11Maggie Reszka22:47.8East Grand Rapids75.1
11Mary Jane McGovern22:47.8East Grand Rapids75.1
10Melana Karsten22:50.4Rockford74.2
12Natalie Allshouse22:50.5Rockford74.2
9Kennidi Kowal22:51.0East Grand Rapids74.0
10Maggie Ruffini22:51.5FHN GR_Forest Hills Northern73.8
10Samantha McClelland22:51.8FHN GR_Forest Hills Northern73.7
11Hannah Barone22:52.3Jenison73.6
10Annika DeJong23:00.6Stevensville Lakeshore70.8
10Reese Meyers23:04.6Hudsonville69.5
11Alana Simmons23:07.6Portage Central68.5
9Madelyn Tude Thuot23:09.0Stevensville Lakeshore68.0
12Taylor Meier23:10.3Paw Paw67.6
11Katherine Cook23:13.0GR_Northview66.7
9Acacia Williams23:13.7Holland Calvary Christian66.4
12Caroline Stewart23:16.2FHN GR_Forest Hills Northern65.6
10Sydney Martin23:16.5Kalamazoo Homeschool Sports65.5
10Mila Schneider23:26.0Rockford62.3
12Allison Hilts23:32.7Portage Central60.1
10Ava Fisher23:34.0Jenison59.7
10Macy Daniels23:36.8Kalamazoo Loy Norrix58.7
12Abigail Winsman23:42.5Stevensville Lakeshore56.8
11MK Elliott23:44.6Portage Central56.1
9Audrey Biebel23:46.6FHN GR_Forest Hills Northern55.5
9Lucy Garber23:48.8Stevensville Lakeshore54.7
12Abby Martin23:50.0Hudsonville54.3
9Riley Hooper23:51.7Rockford53.8
9Ana VanZanten23:52.1Holland Calvary Christian53.6
12Amelia Gibbs23:59.6Paw Paw51.1
9Alison Rotman23:59.9Holland Calvary Christian51.0
11Alanna Mulligan24:02.6Rockford50.1
11Amelia Hurst24:02.8Paw Paw50.1
12Hannah Hillary24:03.2East Grand Rapids49.9
10Tess Peters24:04.6East Grand Rapids49.5
11Mary Claire Davis24:05.2Kalamazoo Homeschool Sports49.3
10Addison Rozema24:08.2Hudsonville48.3
10Makayla Meeuwsen24:09.9Jenison47.7
11Helena Jolliffe24:11.6Rockford47.1
11Ellie Hoekstra24:15.9Jenison45.7
10Daphne Deaton24:16.2Hudsonville45.6
11Emelia VanDerWoude24:16.3Portage Central45.6
12Lauren Halverson24:19.8FHN GR_Forest Hills Northern44.4
10Sabrina Bielecki24:20.8Hudsonville44.1
9Audrey Latchaw24:22.6Lowell43.5
10Megan Lillie24:25.0Lowell42.7
12Maeve Lyons24:27.6FHN GR_Forest Hills Northern41.8
12Emily Patterson24:28.5Stevensville Lakeshore41.5
10Maria Gergely24:29.3Kalamazoo Homeschool Sports41.2
10Lauren Hills24:29.8Hudsonville41.1
9Madeline Beck24:32.2Portage Central40.3
10Ally Wiersma24:36.8Hudsonville38.7
12Emma Kerschbaum24:37.7Battle Creek Lakeview38.4
12Margaret Hartman24:37.9FHN GR_Forest Hills Northern38.4
9Maya Moulton24:39.1Portage Central38.0
12Avery Vogel24:39.3Paw Paw37.9
11Abby Goodwin24:46.4Paw Paw35.5
9Catherine Schellhammer24:46.6East Grand Rapids35.5
10Natalia Verdin24:47.1Portage Central35.3
12Ella Adalbert24:48.3Kalamazoo Loy Norrix34.9
9Kenna Charbauski24:50.1FHN GR_Forest Hills Northern34.3
9Claire VanDis24:50.5Battle Creek Lakeview34.2
12Morgan Righter24:51.0Portage Central34.0
9Rachel Root24:52.8FHN GR_Forest Hills Northern33.4
9Rory Workman24:57.9East Grand Rapids31.7
11Amelia Walchak25:04.4East Grand Rapids29.5
10Anna Miedema25:06.3Kalamazoo Loy Norrix28.9
10Adelaide Kauchak25:07.8Portage Central28.4
10Anahi Garcia25:08.1Jenison28.3
10Isabella Frederick25:08.7Kalamazoo Central28.1
10Evelyn Calow25:13.3Battle Creek Lakeview26.6
10Rachel Ahrens25:14.8FHN GR_Forest Hills Northern26.1
Karmin Kruithoff25:14.8Holland Calvary Christian26.1
10Peyton Ojala25:17.3Portage Central25.2
12Kate Parzych25:20.8FHN GR_Forest Hills Northern24.1
11Lindsey Tubergen25:23.6Hudsonville23.1
9Alivia Apol25:24.2Hudsonville22.9
12Megan Ahrens25:24.6FHN GR_Forest Hills Northern22.8
10Faith McDonald25:27.0Kalamazoo Homeschool Sports22.0
11Emma Kenyon25:27.5Paw Paw21.8
11Paige Stiles25:29.1Mattawan21.3
9Grace Clayton25:29.1Rockford21.3
9Stella Brink25:30.3Kalamazoo Homeschool Sports20.9
9Josie Greene25:34.6Kalamazoo Homeschool Sports19.5
10Madison Sandel25:35.7FHN GR_Forest Hills Northern19.1
10Elisabeth Orr25:37.2Rockford18.6
11Emily Ventrone25:38.5Three Rivers18.2
10Sage Brownell25:46.7Rockford15.4
10Anaeli Garcia25:47.9Jenison15.0
11Lila Nargi25:49.2East Grand Rapids14.6
9Piper Vydareny25:52.5East Grand Rapids13.5
9Anna Furman25:55.5Kalamazoo Central12.5
11Gina Mehling25:58.6Rockford11.5
10Elayna Guadamuz25:59.6Battle Creek Lakeview11.1
12Lina Denney26:01.0Kalamazoo Loy Norrix10.7
12Neve Rydzinski26:02.3Stevensville Lakeshore10.2
10Katelyn Blanch26:02.5Hudsonville10.2
12Delaney Kean26:04.1Paw Paw9.6
12Maria Curcuru26:06.3FHN GR_Forest Hills Northern8.9
11Violet Chamberlain26:09.0FHN GR_Forest Hills Northern8.0
10Elliana Raterman26:12.4Jenison6.9
10Olivia Laninga26:13.8Holland Calvary Christian6.4
11Delaney Hendricks26:16.7GR_Northview5.4
11MaKena Mihalik26:18.3Stevensville Lakeshore4.9
9Calli Rottier26:21.6Lowell3.8
10Rachel Baxter26:22.7Hudsonville3.4
9Ella White26:29.1FHN GR_Forest Hills Northern1.3

Leave a Reply

Fill in your details below or click an icon to log in:

WordPress.com Logo

You are commenting using your WordPress.com account. Log Out /  Change )

Twitter picture

You are commenting using your Twitter account. Log Out /  Change )

Facebook photo

You are commenting using your Facebook account. Log Out /  Change )

Connecting to %s